Hays Grove, Pennsylvania
Current Conditions -  °F | °C
As of 3:56 PM on Tuesday 25 Nov 2014 (Local Time) from KCXY Reporting Station
Clear Clear  
Wind Chill: 53°   Ceiling: Unl
Heat Index: 53°   Visibility: 10mi
Dew Point: 29°   Wind: 7mph
Humidity: 40%   Direction: 240°WSW
Pressure: 30.04"   Gusts: NA
Location:  40.183°N, 77.4166°W
Report Text: KCXY 252056Z 24006KT 10SM CLR 12/M02 A3004 RMK AO2 SLP173 T01171017 53004
Loading
Personal Weather Stations






























Interactive Weather Map New forecast layout! Learn more

10-Day Weather Forecast

Advertisements
Track Severe Weather on mobile